Time;durP1;ratioP1;P1;durP2;ratioP2;P2;SDS_P1;SDS_P2;PMS_P1;PMS_P2;Temp;Humidity;BMP_temperature;BMP_pressure;BME280_temperature;BME280_humidity;BME280_pressure;Samples;Min_cycle;Max_cycle;Signal;HPM_P1;HPM_P2
2021/12/13 00:01:55;;;;;;;24.52;9.63;;;;;;;;;;5032514;28;20051;-76
2021/12/13 00:04:30;;;;;;;31.27;10.70;;;;;;;;;;5024949;28;20037;-75
2021/12/13 00:06:58;;;;;;;23.50;10.27;;;;;;;;;;5019166;28;20485;-75
2021/12/13 00:09:26;;;;;;;30.38;10.30;;;;;;;;;;5035395;28;20127;-75
2021/12/13 00:11:54;;;;;;;31.35;10.27;;;;;;;;;;5034891;28;20072;-76
2021/12/13 00:14:21;;;;;;;30.33;10.57;;;;;;;;;;5048836;28;20036;-76
2021/12/13 00:16:49;;;;;;;34.67;10.70;;;;;;;;;;5032487;28;20051;-75
2021/12/13 00:19:18;;;;;;;35.70;10.27;;;;;;;;;;5048217;28;20033;-76
2021/12/13 00:21:47;;;;;;;31.10;10.02;;;;;;;;;;5034749;28;20044;-75
2021/12/13 00:24:22;;;;;;;30.98;11.00;;;;;;;;;;5031228;28;20412;-74
2021/12/13 00:26:49;;;;;;;35.55;11.32;;;;;;;;;;5021619;28;20041;-75
2021/12/13 00:29:20;;;;;;;30.67;9.30;;;;;;;;;;5040312;28;20064;-76
2021/12/13 00:31:46;;;;;;;;;;;;;;;;;;5039666;28;20552;-75
2021/12/13 00:34:21;;;;;;;35.97;10.57;;;;;;;;;;5041205;28;20012;-74
2021/12/13 00:36:50;;;;;;;40.72;10.88;;;;;;;;;;5039247;28;20044;-75
2021/12/13 00:39:31;;;;;;;36.63;10.23;;;;;;;;;;5038300;28;20103;-75
2021/12/13 00:41:58;;;;;;;46.95;12.52;;;;;;;;;;5021720;28;20044;-76
2021/12/13 00:44:27;;;;;;;41.08;12.23;;;;;;;;;;5022554;28;20566;-77
2021/12/13 00:46:54;;;;;;;37.63;12.43;;;;;;;;;;5039563;28;20041;-75
2021/12/13 00:49:24;;;;;;;36.15;11.98;;;;;;;;;;5021493;28;20037;-75
2021/12/13 00:51:51;;;;;;;54.78;13.40;;;;;;;;;;5022492;28;20491;-76
2021/12/13 00:54:26;;;;;;;45.40;13.10;;;;;;;;;;5040253;28;20094;-75
2021/12/13 00:56:58;;;;;;;36.40;11.63;;;;;;;;;;5023415;28;20045;-75
2021/12/13 00:59:33;;;;;;;52.55;11.82;;;;;;;;;;5038466;28;20339;-74
2021/12/13 01:02:03;;;;;;;44.47;13.43;;;;;;;;;;5021615;28;20034;-77
2021/12/13 01:04:45;;;;;;;39.72;13.50;;;;;;;;;;5022394;28;20114;-75
2021/12/13 01:07:11;;;;;;;49.03;15.15;;;;;;;;;;5039536;28;20128;-76
2021/12/13 01:09:52;;;;;;;48.17;14.10;;;;;;;;;;5039960;28;20116;-75
2021/12/13 01:12:20;;;;;;;48.00;13.82;;;;;;;;;;5039833;28;20468;-74
2021/12/13 01:14:58;;;;;;;57.78;14.68;;;;;;;;;;5022303;28;20482;-73
2021/12/13 01:17:45;;;;;;;50.15;14.35;;;;;;;;;;5021823;28;20509;-75
2021/12/13 01:20:24;;;;;;;52.83;16.40;;;;;;;;;;5039470;28;20049;-77
2021/12/13 01:22:56;;;;;;;61.83;14.93;;;;;;;;;;5040374;28;20050;-76
2021/12/13 01:28:05;;;;;;;52.13;14.57;;;;;;;;;;5041524;28;20055;-74
2021/12/13 01:30:34;;;;;;;61.85;15.13;;;;;;;;;;5025283;28;20127;-74
2021/12/13 01:33:01;;;;;;;51.10;14.48;;;;;;;;;;5042985;28;20037;-75
2021/12/13 01:35:29;;;;;;;60.90;17.02;;;;;;;;;;5042126;28;20380;-76
2021/12/13 01:38:02;;;;;;;59.20;16.45;;;;;;;;;;5041314;28;20044;-76
2021/12/13 01:40:31;;;;;;;69.82;15.60;;;;;;;;;;5042329;28;20040;-76
2021/12/13 01:43:02;;;;;;;60.33;15.13;;;;;;;;;;5042769;28;20043;-75
2021/12/13 01:45:28;;;;;;;;;;;;;;;;;;5042310;28;20041;-76
2021/12/13 01:47:54;;;;;;;56.58;15.55;;;;;;;;;;5024820;28;19984;-76
2021/12/13 01:50:22;;;;;;;58.50;14.80;;;;;;;;;;5043038;28;20101;-76
2021/12/13 01:52:50;;;;;;;50.80;13.85;;;;;;;;;;5025368;28;20045;-75
2021/12/13 01:55:21;;;;;;;53.55;13.88;;;;;;;;;;5040995;28;20400;-76
2021/12/13 01:57:50;;;;;;;39.70;11.10;;;;;;;;;;5041797;28;20045;-75
2021/12/13 02:00:32;;;;;;;42.28;11.27;;;;;;;;;;5040699;28;20049;-77
2021/12/13 02:02:58;;;;;;;36.65;12.27;;;;;;;;;;5024043;28;20392;-77
2021/12/13 02:05:27;;;;;;;34.13;10.63;;;;;;;;;;5042123;28;20040;-75
2021/12/13 02:07:59;;;;;;;33.75;10.20;;;;;;;;;;5025664;28;20568;-76
2021/12/13 02:10:31;;;;;;;29.08;9.70;;;;;;;;;;5041325;28;20037;-75
2021/12/13 02:13:01;;;;;;;33.38;10.93;;;;;;;;;;5040958;28;20037;-76
2021/12/13 02:18:16;;;;;;;27.65;9.20;;;;;;;;;;5032851;28;20053;-76
2021/12/13 02:20:45;;;;;;;26.63;9.07;;;;;;;;;;5034890;28;20128;-75
2021/12/13 02:23:12;;;;;;;23.88;9.15;;;;;;;;;;5019886;28;20081;-75
2021/12/13 02:25:40;;;;;;;23.75;9.35;;;;;;;;;;5036446;28;20045;-76
2021/12/13 02:28:21;;;;;;;20.23;8.70;;;;;;;;;;5036516;28;20103;-76
2021/12/13 02:30:59;;;;;;;20.67;7.72;;;;;;;;;;5036424;28;20095;-75
2021/12/13 02:33:33;;;;;;;25.58;8.32;;;;;;;;;;5019961;28;20451;-74
2021/12/13 02:36:01;;;;;;;21.02;7.95;;;;;;;;;;5036377;28;20049;-76
2021/12/13 02:38:27;;;;;;;18.25;7.97;;;;;;;;;;5019732;28;20051;-75
2021/12/13 02:40:53;;;;;;;19.00;7.57;;;;;;;;;;5020161;28;20378;-75
2021/12/13 02:43:21;;;;;;;22.13;8.82;;;;;;;;;;5019544;28;20116;-76
2021/12/13 02:45:52;;;;;;;21.98;9.57;;;;;;;;;;5036432;28;20132;-75
2021/12/13 02:48:22;;;;;;;18.67;8.27;;;;;;;;;;5020022;28;20048;-75
2021/12/13 02:51:11;;;;;;;18.20;8.02;;;;;;;;;;5036197;28;20079;-76
2021/12/13 02:53:48;;;;;;;19.65;7.93;;;;;;;;;;5036362;28;20045;-75
2021/12/13 02:56:16;;;;;;;21.25;9.68;;;;;;;;;;5019741;28;20084;-76
2021/12/13 02:58:42;;;;;;;23.20;9.65;;;;;;;;;;5036040;28;20044;-75
2021/12/13 03:01:11;;;;;;;25.88;10.43;;;;;;;;;;5019466;28;20041;-75
2021/12/13 03:03:40;;;;;;;26.08;10.25;;;;;;;;;;5036217;28;20041;-75
2021/12/13 03:06:07;;;;;;;22.73;10.18;;;;;;;;;;5019519;28;20036;-76
2021/12/13 03:08:39;;;;;;;27.10;10.35;;;;;;;;;;5019307;28;20040;-75
2021/12/13 03:11:07;;;;;;;26.35;10.82;;;;;;;;;;5035539;28;20080;-75
2021/12/13 03:13:33;;;;;;;24.25;9.98;;;;;;;;;;5019159;28;20041;-74
2021/12/13 03:16:06;;;;;;;27.33;11.25;;;;;;;;;;5019352;28;20041;-74
2021/12/13 03:18:38;;;;;;;27.42;12.15;;;;;;;;;;5035493;28;20123;-74
2021/12/13 03:21:10;;;;;;;26.45;10.95;;;;;;;;;;5035539;28;20716;-75
2021/12/13 03:23:56;;;;;;;30.23;12.55;;;;;;;;;;5035347;28;20053;-75
2021/12/13 03:26:22;;;;;;;28.58;11.25;;;;;;;;;;5018876;28;20048;-75
2021/12/13 03:28:56;;;;;;;27.35;11.57;;;;;;;;;;5018882;28;20045;-75
2021/12/13 03:31:26;;;;;;;29.67;11.57;;;;;;;;;;5018220;28;20047;-75
2021/12/13 03:33:52;;;;;;;28.27;10.85;;;;;;;;;;5035245;28;20412;-75
2021/12/13 03:36:24;;;;;;;28.65;10.57;;;;;;;;;;5019186;28;20041;-74
2021/12/13 03:38:52;;;;;;;32.13;11.48;;;;;;;;;;5018911;28;20060;-77
2021/12/13 03:41:20;;;;;;;25.80;10.20;;;;;;;;;;5018861;28;20056;-74
2021/12/13 03:43:52;;;;;;;24.15;10.15;;;;;;;;;;5018863;28;20044;-74
2021/12/13 03:46:19;;;;;;;27.75;9.73;;;;;;;;;;5035038;28;20037;-75
2021/12/13 03:48:46;;;;;;;25.83;11.20;;;;;;;;;;5018713;28;20572;-76
2021/12/13 03:51:17;;;;;;;25.13;9.95;;;;;;;;;;5018771;28;20085;-75
2021/12/13 03:53:47;;;;;;;24.33;9.75;;;;;;;;;;5034996;28;20091;-77
2021/12/13 03:56:15;;;;;;;24.77;9.70;;;;;;;;;;5018408;28;20080;-77
2021/12/13 03:58:46;;;;;;;29.75;10.73;;;;;;;;;;5035074;28;20127;-75
2021/12/13 04:01:14;;;;;;;24.33;9.50;;;;;;;;;;5034514;28;20071;-76
2021/12/13 04:03:41;;;;;;;21.27;8.75;;;;;;;;;;5034953;28;20048;-75
2021/12/13 04:06:07;;;;;;;29.50;9.68;;;;;;;;;;5034535;28;20461;-75
2021/12/13 04:08:34;;;;;;;22.88;9.30;;;;;;;;;;5018174;28;20033;-77
2021/12/13 04:11:02;;;;;;;23.30;8.70;;;;;;;;;;5018276;28;20037;-77
2021/12/13 04:13:30;;;;;;;20.98;8.82;;;;;;;;;;5018006;28;20037;-74
2021/12/13 04:16:13;;;;;;;26.30;9.38;;;;;;;;;;5018021;28;20041;-75
2021/12/13 04:21:14;;;;;;;22.25;8.68;;;;;;;;;;5034552;28;20102;-75
2021/12/13 04:23:42;;;;;;;18.58;8.07;;;;;;;;;;5030844;28;20053;-76
2021/12/13 04:26:10;;;;;;;20.38;7.97;;;;;;;;;;5014580;28;20083;-75
2021/12/13 04:28:41;;;;;;;22.45;8.50;;;;;;;;;;5030829;28;20045;-75
2021/12/13 04:31:09;;;;;;;22.25;8.32;;;;;;;;;;5030938;28;20041;-77
2021/12/13 04:33:41;;;;;;;17.88;7.68;;;;;;;;;;5030821;28;20326;-76
2021/12/13 04:36:13;;;;;;;19.60;7.07;;;;;;;;;;5031199;28;20501;-77
2021/12/13 04:38:47;;;;;;;18.95;7.40;;;;;;;;;;5014536;28;20041;-76
2021/12/13 04:41:19;;;;;;;20.80;6.85;;;;;;;;;;5014513;28;20040;-76
2021/12/13 04:43:46;;;;;;;15.65;6.60;;;;;;;;;;5013088;28;20037;-77
2021/12/13 04:46:12;;;;;;;14.05;6.18;;;;;;;;;;5014167;28;20045;-77
2021/12/13 04:48:40;;;;;;;16.75;7.38;;;;;;;;;;5013913;28;20047;-77
2021/12/13 04:51:11;;;;;;;17.67;6.55;;;;;;;;;;5014401;28;20136;-75
2021/12/13 04:53:44;;;;;;;14.65;6.65;;;;;;;;;;5030518;28;20398;-76
2021/12/13 04:56:11;;;;;;;13.00;5.70;;;;;;;;;;5030881;28;20045;-75
2021/12/13 04:58:39;;;;;;;17.80;6.28;;;;;;;;;;5014226;28;20045;-75
2021/12/13 05:01:06;;;;;;;14.60;5.97;;;;;;;;;;5013877;28;20044;-75
2021/12/13 05:03:33;;;;;;;16.10;6.63;;;;;;;;;;5014289;28;20493;-77
2021/12/13 05:06:01;;;;;;;17.38;5.60;;;;;;;;;;5014200;28;20069;-77
2021/12/13 05:08:27;;;;;;;11.90;6.53;;;;;;;;;;5014046;28;20541;-76
2021/12/13 05:10:53;;;;;;;15.35;6.57;;;;;;;;;;5014200;28;20052;-76
2021/12/13 05:13:22;;;;;;;26.50;6.65;;;;;;;;;;5030491;28;20552;-77
2021/12/13 05:15:57;;;;;;;13.70;6.38;;;;;;;;;;5013806;28;20057;-77
2021/12/13 05:18:26;;;;;;;13.50;6.88;;;;;;;;;;5030271;28;20041;-77
2021/12/13 05:21:04;;;;;;;13.88;6.55;;;;;;;;;;5013773;28;20098;-78
2021/12/13 05:23:31;;;;;;;15.38;5.65;;;;;;;;;;5029957;28;20080;-75
2021/12/13 05:25:59;;;;;;;10.95;5.78;;;;;;;;;;5030078;28;20054;-78
2021/12/13 05:28:28;;;;;;;12.63;5.72;;;;;;;;;;5013907;28;20045;-78
2021/12/13 05:30:57;;;;;;;14.73;6.68;;;;;;;;;;5014023;28;20041;-77
2021/12/13 05:33:24;;;;;;;13.18;5.38;;;;;;;;;;5030202;28;20571;-78
2021/12/13 05:35:55;;;;;;;11.95;5.95;;;;;;;;;;5013906;28;20057;-78
2021/12/13 05:38:27;;;;;;;13.48;6.28;;;;;;;;;;5030479;28;20045;-78
2021/12/13 05:40:53;;;;;;;13.30;5.85;;;;;;;;;;5013835;28;20049;-77
2021/12/13 05:43:19;;;;;;;13.07;6.15;;;;;;;;;;5029989;28;20195;-78
2021/12/13 05:45:48;;;;;;;12.55;5.70;;;;;;;;;;5029995;28;20165;-77
2021/12/13 05:48:22;;;;;;;15.70;6.22;;;;;;;;;;5013737;28;20099;-78
2021/12/13 05:50:51;;;;;;;16.05;6.10;;;;;;;;;;5013732;28;20040;-77
2021/12/13 05:53:19;;;;;;;13.10;6.53;;;;;;;;;;5013441;28;20041;-77
2021/12/13 05:55:45;;;;;;;16.42;6.88;;;;;;;;;;5032384;28;20469;-78
2021/12/13 05:58:12;;;;;;;12.02;6.13;;;;;;;;;;5033668;28;20133;-78
2021/12/13 06:00:40;;;;;;;15.40;7.35;;;;;;;;;;5017478;28;20493;-78
2021/12/13 06:03:09;;;;;;;17.80;6.68;;;;;;;;;;5017222;28;20063;-77
2021/12/13 06:05:37;;;;;;;10.85;5.60;;;;;;;;;;5017555;28;20096;-77
2021/12/13 06:08:05;;;;;;;17.50;6.55;;;;;;;;;;5033501;28;20120;-76
2021/12/13 06:10:37;;;;;;;13.85;6.80;;;;;;;;;;5017072;28;20512;-78
2021/12/13 06:13:06;;;;;;;12.65;6.03;;;;;;;;;;5033508;28;20053;-77
2021/12/13 06:15:38;;;;;;;13.98;5.95;;;;;;;;;;5017007;28;20135;-78
2021/12/13 06:18:04;;;;;;;18.42;5.72;;;;;;;;;;5033376;28;20057;-79
2021/12/13 06:20:32;;;;;;;14.93;6.13;;;;;;;;;;5017009;28;20486;-79
2021/12/13 06:23:04;;;;;;;16.35;6.53;;;;;;;;;;5019496;28;20041;-78
2021/12/13 06:25:30;;;;;;;13.23;6.20;;;;;;;;;;5036486;28;20064;-77
2021/12/13 06:28:00;;;;;;;16.30;7.10;;;;;;;;;;5036830;28;20049;-78
2021/12/13 06:30:28;;;;;;;13.40;5.70;;;;;;;;;;5020074;28;20493;-78
2021/12/13 06:33:20;;;;;;;12.05;5.88;;;;;;;;;;5019986;28;20389;-78
2021/12/13 06:35:49;;;;;;;15.68;6.55;;;;;;;;;;5014632;28;20060;-78
2021/12/13 06:38:26;;;;;;;14.27;6.07;;;;;;;;;;5032545;28;20041;-78
2021/12/13 06:40:57;;;;;;;15.15;6.65;;;;;;;;;;5032969;28;20045;-76
2021/12/13 06:43:23;;;;;;;;;;;;;;;;;;5016692;28;20524;-78
2021/12/13 06:45:49;;;;;;;12.30;5.68;;;;;;;;;;5032936;28;19975;-77
2021/12/13 06:48:15;;;;;;;14.27;5.93;;;;;;;;;;5017798;28;20072;-78
2021/12/13 06:50:41;;;;;;;16.40;6.82;;;;;;;;;;5036574;28;20048;-78
2021/12/13 06:53:12;;;;;;;15.65;6.65;;;;;;;;;;5019422;28;20041;-78
2021/12/13 06:55:38;;;;;;;16.05;7.03;;;;;;;;;;5019671;28;20044;-78
2021/12/13 06:58:13;;;;;;;19.88;6.65;;;;;;;;;;5019552;28;20401;-78
2021/12/13 07:00:39;;;;;;;15.65;6.65;;;;;;;;;;5035949;28;20408;-78
2021/12/13 07:03:06;;;;;;;14.65;6.70;;;;;;;;;;5035991;28;20562;-78
2021/12/13 07:05:32;;;;;;;13.57;7.13;;;;;;;;;;5036096;28;20043;-76
2021/12/13 07:08:00;;;;;;;18.98;7.63;;;;;;;;;;5018254;28;20037;-77
2021/12/13 07:10:28;;;;;;;20.63;8.43;;;;;;;;;;5035516;28;20107;-78
2021/12/13 07:12:56;;;;;;;16.85;8.27;;;;;;;;;;5037234;28;20036;-78
2021/12/13 07:15:28;;;;;;;17.40;7.63;;;;;;;;;;5046254;28;20099;-78
2021/12/13 07:18:06;;;;;;;20.10;9.02;;;;;;;;;;5027612;28;20044;-78
2021/12/13 07:20:40;;;;;;;21.42;8.93;;;;;;;;;;5044624;28;20056;-78
2021/12/13 07:23:07;;;;;;;17.60;8.35;;;;;;;;;;5040337;28;20405;-78
2021/12/13 07:25:40;;;;;;;20.27;8.05;;;;;;;;;;5024328;28;20072;-78
2021/12/13 07:28:07;;;;;;;20.02;9.38;;;;;;;;;;5039301;28;20401;-79
2021/12/13 07:30:35;;;;;;;18.58;8.90;;;;;;;;;;5041442;28;20041;-78
2021/12/13 07:33:04;;;;;;;21.42;8.80;;;;;;;;;;5039880;28;20072;-78
2021/12/13 07:35:32;;;;;;;17.35;8.52;;;;;;;;;;5041097;28;20071;-78
2021/12/13 07:38:04;;;;;;;21.00;9.98;;;;;;;;;;5025158;28;20501;-79
2021/12/13 07:40:44;;;;;;;22.98;9.18;;;;;;;;;;5024421;28;20520;-77
2021/12/13 07:43:26;;;;;;;25.50;11.15;;;;;;;;;;5040391;28;20386;-78
2021/12/13 07:45:55;;;;;;;21.85;9.82;;;;;;;;;;5024235;28;20513;-78
2021/12/13 07:48:24;;;;;;;23.65;11.65;;;;;;;;;;5039368;28;20421;-78
2021/12/13 07:50:59;;;;;;;28.73;11.60;;;;;;;;;;5023773;28;20048;-78
2021/12/13 07:53:26;;;;;;;23.42;11.32;;;;;;;;;;5039673;28;20041;-78
2021/12/13 07:55:52;;;;;;;24.30;11.60;;;;;;;;;;5041970;28;20460;-78
2021/12/13 07:58:32;;;;;;;25.52;12.00;;;;;;;;;;5022813;28;20063;-78
2021/12/13 08:01:07;;;;;;;30.13;13.43;;;;;;;;;;5019233;28;20594;-77
2021/12/13 08:03:33;;;;;;;25.42;11.55;;;;;;;;;;5036281;28;20049;-78
2021/12/13 08:06:05;;;;;;;28.27;12.07;;;;;;;;;;5021316;28;20182;-79
2021/12/13 08:08:32;;;;;;;27.10;12.80;;;;;;;;;;5020072;28;20425;-78
2021/12/13 08:10:59;;;;;;;27.63;12.95;;;;;;;;;;5035663;28;20053;-79
2021/12/13 08:13:28;;;;;;;34.20;13.95;;;;;;;;;;5020888;28;20036;-78
2021/12/13 08:15:55;;;;;;;28.48;12.93;;;;;;;;;;5038324;28;20048;-77
2021/12/13 08:18:24;;;;;;;28.10;11.75;;;;;;;;;;5024352;28;20095;-77
2021/12/13 08:20:53;;;;;;;28.55;12.50;;;;;;;;;;5024430;28;20049;-78
2021/12/13 08:23:24;;;;;;;39.85;13.63;;;;;;;;;;5038348;28;20060;-76
2021/12/13 08:25:53;;;;;;;37.20;14.40;;;;;;;;;;5038966;28;20056;-78
2021/12/13 08:28:20;;;;;;;37.42;14.82;;;;;;;;;;5038566;28;20041;-78
2021/12/13 08:30:51;;;;;;;29.08;13.43;;;;;;;;;;5040404;28;20537;-77
2021/12/13 08:33:22;;;;;;;32.13;13.70;;;;;;;;;;5040887;28;20044;-77
2021/12/13 08:35:48;;;;;;;33.35;15.05;;;;;;;;;;5023052;28;20049;-78
2021/12/13 08:38:26;;;;;;;32.60;15.25;;;;;;;;;;5039323;28;20094;-78
2021/12/13 08:40:52;;;;;;;35.45;14.98;;;;;;;;;;5023241;28;20096;-77
2021/12/13 08:43:37;;;;;;;39.10;16.35;;;;;;;;;;5021583;28;20052;-77
2021/12/13 08:46:03;;;;;;;34.47;15.70;;;;;;;;;;5038565;28;20041;-78
2021/12/13 08:48:29;;;;;;;36.83;14.95;;;;;;;;;;5023453;28;20501;-78
2021/12/13 08:50:57;;;;;;;39.05;17.35;;;;;;;;;;5040037;28;20486;-78
2021/12/13 08:53:34;;;;;;;34.30;15.68;;;;;;;;;;5038358;28;20041;-79
2021/12/13 08:56:11;;;;;;;40.30;17.17;;;;;;;;;;5038270;28;20582;-77
2021/12/13 08:58:38;;;;;;;34.03;15.38;;;;;;;;;;5021992;28;20127;-77
2021/12/13 09:01:09;;;;;;;34.80;14.27;;;;;;;;;;5035509;28;20124;-77
2021/12/13 09:03:35;;;;;;;;;;;;;;;;;;5020197;28;20037;-78
2021/12/13 09:06:04;;;;;;;32.45;14.02;;;;;;;;;;5035367;28;19921;-77
2021/12/13 09:08:33;;;;;;;35.03;15.27;;;;;;;;;;5035086;28;20041;-77
2021/12/13 09:11:05;;;;;;;32.25;13.95;;;;;;;;;;5022927;28;20515;-78
2021/12/13 09:13:40;;;;;;;38.80;15.07;;;;;;;;;;5039592;28;20091;-78
2021/12/13 09:16:07;;;;;;;29.02;13.52;;;;;;;;;;5022590;28;20037;-76
2021/12/13 09:18:33;;;;;;;33.40;15.25;;;;;;;;;;5022946;28;20044;-77
2021/12/13 09:20:59;;;;;;;31.45;15.38;;;;;;;;;;5040956;28;20048;-77
2021/12/13 09:23:32;;;;;;;31.83;15.27;;;;;;;;;;5039004;28;20049;-78
2021/12/13 09:26:09;;;;;;;26.80;12.77;;;;;;;;;;5038606;28;20098;-77
2021/12/13 09:28:48;;;;;;;29.63;14.50;;;;;;;;;;5040018;28;20048;-79
2021/12/13 09:31:20;;;;;;;31.42;13.77;;;;;;;;;;5032673;28;20094;-78
2021/12/13 09:33:55;;;;;;;30.52;14.20;;;;;;;;;;5057079;28;20052;-78
2021/12/13 09:36:23;;;;;;;31.15;14.32;;;;;;;;;;5040618;28;20177;-77
2021/12/13 09:39:18;;;;;;;27.88;13.45;;;;;;;;;;5057119;28;20043;-77
2021/12/13 09:42:04;;;;;;;31.77;15.80;;;;;;;;;;5054297;28;20147;-78
2021/12/13 09:44:32;;;;;;;35.85;14.32;;;;;;;;;;5057214;28;20110;-76
2021/12/13 09:47:05;;;;;;;28.52;12.70;;;;;;;;;;5040693;28;20040;-78
2021/12/13 09:49:34;;;;;;;31.58;13.05;;;;;;;;;;5057521;28;20041;-78
2021/12/13 09:52:07;;;;;;;31.60;14.23;;;;;;;;;;5040747;28;20053;-78
2021/12/13 09:54:38;;;;;;;33.63;14.48;;;;;;;;;;5057405;28;20049;-77
2021/12/13 09:57:04;;;;;;;;;;;;;;;;;;5057742;28;20049;-78
2021/12/13 09:59:38;;;;;;;30.95;13.55;;;;;;;;;;5056891;28;19927;-78
2021/12/13 10:02:07;;;;;;;27.20;13.70;;;;;;;;;;5056676;28;20132;-75
2021/12/13 10:04:35;;;;;;;29.00;14.07;;;;;;;;;;5040001;28;20090;-76
2021/12/13 10:07:04;;;;;;;33.47;13.80;;;;;;;;;;5056655;28;20091;-77
2021/12/13 10:09:38;;;;;;;30.50;14.25;;;;;;;;;;5056495;28;20037;-78
2021/12/13 10:12:08;;;;;;;26.98;13.88;;;;;;;;;;5056356;28;20041;-78
2021/12/13 10:14:38;;;;;;;27.93;12.27;;;;;;;;;;5039859;28;20080;-78
2021/12/13 10:17:06;;;;;;;28.23;13.48;;;;;;;;;;5039740;28;20037;-77
2021/12/13 10:19:34;;;;;;;23.98;12.38;;;;;;;;;;5056510;28;20102;-76
2021/12/13 10:22:01;;;;;;;28.55;13.02;;;;;;;;;;5039552;28;20045;-77
2021/12/13 10:24:30;;;;;;;25.25;12.68;;;;;;;;;;5039610;28;20551;-76
2021/12/13 10:26:59;;;;;;;26.05;13.27;;;;;;;;;;5055918;28;20049;-76
2021/12/13 10:29:25;;;;;;;29.65;12.60;;;;;;;;;;5039452;28;20467;-77
2021/12/13 10:31:51;;;;;;;28.30;12.80;;;;;;;;;;5039623;28;20155;-77
2021/12/13 10:34:24;;;;;;;28.67;12.75;;;;;;;;;;5056408;28;20089;-77
2021/12/13 10:36:53;;;;;;;27.63;12.80;;;;;;;;;;5056191;28;20044;-77
2021/12/13 10:39:21;;;;;;;29.08;13.25;;;;;;;;;;5056065;28;20416;-77
2021/12/13 10:41:49;;;;;;;23.50;11.90;;;;;;;;;;5037588;28;20037;-75
2021/12/13 10:44:17;;;;;;;23.55;12.27;;;;;;;;;;5036252;28;20033;-77
2021/12/13 10:46:47;;;;;;;25.70;12.50;;;;;;;;;;5052897;28;20120;-76
2021/12/13 10:49:15;;;;;;;24.17;11.38;;;;;;;;;;5036174;28;20504;-77
2021/12/13 10:51:42;;;;;;;23.63;11.90;;;;;;;;;;5053030;28;20048;-77
2021/12/13 10:54:11;;;;;;;27.77;11.88;;;;;;;;;;5036224;28;20045;-77
2021/12/13 10:56:40;;;;;;;26.85;11.45;;;;;;;;;;5053516;28;20048;-77
2021/12/13 10:59:11;;;;;;;27.40;10.95;;;;;;;;;;5053490;28;20461;-77
2021/12/13 11:01:39;;;;;;;23.15;10.98;;;;;;;;;;5036477;28;20045;-77
2021/12/13 11:04:07;;;;;;;17.80;10.50;;;;;;;;;;5053211;28;20033;-77
2021/12/13 11:06:35;;;;;;;19.70;11.15;;;;;;;;;;5036105;28;20032;-76
2021/12/13 11:09:01;;;;;;;22.38;11.10;;;;;;;;;;5035835;28;20037;-76
2021/12/13 11:11:29;;;;;;;20.25;11.15;;;;;;;;;;5036155;28;20473;-74
2021/12/13 11:13:57;;;;;;;23.95;11.40;;;;;;;;;;5052272;28;20492;-76
2021/12/13 11:16:26;;;;;;;26.88;12.27;;;;;;;;;;5052256;28;20063;-76
2021/12/13 11:18:52;;;;;;;22.17;11.25;;;;;;;;;;5052104;28;20045;-77
2021/12/13 11:21:21;;;;;;;24.23;11.23;;;;;;;;;;5032557;28;20102;-77
2021/12/13 11:23:47;;;;;;;22.42;10.65;;;;;;;;;;5048450;28;20057;-76
2021/12/13 11:26:15;;;;;;;22.05;10.90;;;;;;;;;;5048193;28;20705;-76
2021/12/13 11:28:42;;;;;;;25.02;11.00;;;;;;;;;;5048540;28;20044;-75
2021/12/13 11:31:10;;;;;;;21.00;10.68;;;;;;;;;;5032168;28;20080;-77
2021/12/13 11:33:56;;;;;;;20.20;10.07;;;;;;;;;;5048296;28;20056;-77
2021/12/13 11:36:30;;;;;;;22.45;12.05;;;;;;;;;;5048136;28;20047;-76
2021/12/13 11:39:25;;;;;;;23.38;11.25;;;;;;;;;;5031412;28;20279;-78
2021/12/13 11:41:51;;;;;;;21.50;9.93;;;;;;;;;;5048318;28;20041;-77
2021/12/13 11:44:36;;;;;;;20.23;9.27;;;;;;;;;;5048883;28;20366;-77
2021/12/13 11:47:21;;;;;;;23.25;9.50;;;;;;;;;;5048398;28;20132;-77
2021/12/13 11:49:53;;;;;;;20.55;9.38;;;;;;;;;;5048000;28;20448;-77
2021/12/13 11:52:39;;;;;;;20.95;10.00;;;;;;;;;;5047881;28;20080;-77
2021/12/13 11:55:24;;;;;;;23.17;10.63;;;;;;;;;;5031608;28;20052;-76
2021/12/13 11:58:08;;;;;;;20.80;9.45;;;;;;;;;;5048138;28;20114;-76
2021/12/13 12:00:47;;;;;;;24.00;9.98;;;;;;;;;;5047884;28;20044;-76
2021/12/13 12:03:45;;;;;;;22.92;9.93;;;;;;;;;;5047532;28;20049;-77
2021/12/13 12:06:31;;;;;;;22.88;9.48;;;;;;;;;;5048070;28;20055;-77
2021/12/13 12:09:16;;;;;;;21.30;10.23;;;;;;;;;;5051702;28;20131;-77
2021/12/13 12:12:01;;;;;;;18.33;9.95;;;;;;;;;;5051251;28;20171;-77
2021/12/13 12:14:29;;;;;;;21.25;9.27;;;;;;;;;;5051370;28;20045;-76
2021/12/13 12:16:56;;;;;;;22.02;9.85;;;;;;;;;;5051208;28;20045;-76
2021/12/13 12:19:24;;;;;;;21.20;10.52;;;;;;;;;;5051396;28;20048;-77
2021/12/13 12:21:55;;;;;;;21.52;9.52;;;;;;;;;;5050877;28;20041;-77
2021/12/13 12:24:22;;;;;;;20.08;9.43;;;;;;;;;;5050993;28;20057;-77
2021/12/13 12:26:57;;;;;;;17.65;9.48;;;;;;;;;;5051050;28;20056;-77
2021/12/13 12:29:32;;;;;;;21.25;9.65;;;;;;;;;;5051226;28;20036;-76
2021/12/13 12:32:01;;;;;;;21.25;8.73;;;;;;;;;;5050847;28;20041;-77
2021/12/13 12:34:28;;;;;;;26.40;10.25;;;;;;;;;;5050803;28;20118;-74
2021/12/13 12:36:57;;;;;;;20.35;8.82;;;;;;;;;;5050665;28;20103;-76
2021/12/13 12:39:23;;;;;;;21.00;9.32;;;;;;;;;;5050996;28;20041;-78
2021/12/13 12:42:01;;;;;;;20.00;9.27;;;;;;;;;;5050515;28;20052;-76
2021/12/13 12:44:38;;;;;;;19.52;9.38;;;;;;;;;;5050539;28;20041;-78
2021/12/13 12:47:04;;;;;;;16.25;8.40;;;;;;;;;;5050675;28;20087;-76
2021/12/13 12:49:30;;;;;;;23.20;10.25;;;;;;;;;;5050804;28;20497;-77
2021/12/13 12:52:02;;;;;;;21.83;9.93;;;;;;;;;;5050546;28;20041;-76
2021/12/13 12:54:28;;;;;;;18.77;9.43;;;;;;;;;;5050462;28;20076;-77
2021/12/13 12:56:58;;;;;;;24.10;10.00;;;;;;;;;;5050527;28;20417;-74
2021/12/13 12:59:24;;;;;;;20.80;10.82;;;;;;;;;;5034170;28;20044;-75
2021/12/13 13:01:58;;;;;;;23.30;9.57;;;;;;;;;;5033755;28;20048;-76
2021/12/13 13:04:29;;;;;;;23.85;9.93;;;;;;;;;;5049777;28;20123;-76
2021/12/13 13:06:57;;;;;;;19.30;9.85;;;;;;;;;;5050298;28;20043;-74
2021/12/13 13:09:33;;;;;;;20.38;10.05;;;;;;;;;;5050275;28;20177;-75
2021/12/13 13:11:59;;;;;;;18.52;9.95;;;;;;;;;;5050428;28;20040;-76
2021/12/13 13:14:28;;;;;;;23.25;10.55;;;;;;;;;;5050697;28;20060;-76
2021/12/13 13:16:57;;;;;;;22.92;10.25;;;;;;;;;;5050380;28;20125;-76
2021/12/13 13:19:25;;;;;;;20.00;9.15;;;;;;;;;;5033520;28;20033;-76
2021/12/13 13:21:51;;;;;;;22.33;10.38;;;;;;;;;;5050233;28;20041;-75
2021/12/13 13:24:19;;;;;;;18.20;9.50;;;;;;;;;;5049875;28;20060;-75
2021/12/13 13:26:45;;;;;;;19.02;9.07;;;;;;;;;;5050109;28;20045;-76
2021/12/13 13:29:15;;;;;;;22.25;10.23;;;;;;;;;;5050395;28;20496;-76
2021/12/13 13:31:44;;;;;;;20.02;8.70;;;;;;;;;;5050078;28;20041;-76
2021/12/13 13:34:12;;;;;;;23.92;11.95;;;;;;;;;;5050060;28;20045;-76
2021/12/13 13:36:41;;;;;;;21.05;10.43;;;;;;;;;;5033263;28;20051;-75
2021/12/13 13:39:15;;;;;;;24.35;10.68;;;;;;;;;;5041837;28;20488;-77
2021/12/13 13:41:42;;;;;;;26.50;11.73;;;;;;;;;;5039824;28;20571;-75
2021/12/13 13:44:09;;;;;;;21.75;10.45;;;;;;;;;;5016112;28;20080;-76
2021/12/13 13:46:35;;;;;;;23.17;10.38;;;;;;;;;;5030325;28;20083;-77
2021/12/13 13:49:02;;;;;;;23.10;11.32;;;;;;;;;;5030010;28;20401;-77
2021/12/13 13:51:30;;;;;;;20.95;10.65;;;;;;;;;;5013384;28;20038;-75
2021/12/13 13:53:56;;;;;;;22.95;11.07;;;;;;;;;;5013901;28;20037;-77
2021/12/13 13:56:27;;;;;;;21.40;10.68;;;;;;;;;;5013515;28;20049;-77
2021/12/13 13:58:56;;;;;;;26.50;10.68;;;;;;;;;;5029940;28;20120;-77
2021/12/13 14:01:29;;;;;;;22.02;10.13;;;;;;;;;;5029948;28;20393;-76
2021/12/13 14:04:04;;;;;;;23.13;9.55;;;;;;;;;;5030040;28;20041;-77
2021/12/13 14:06:35;;;;;;;20.50;10.02;;;;;;;;;;5029764;28;20041;-76
2021/12/13 14:09:10;;;;;;;21.63;9.55;;;;;;;;;;5013435;28;20038;-77
2021/12/13 14:11:54;;;;;;;19.25;10.40;;;;;;;;;;5029722;28;20033;-77
2021/12/13 14:14:21;;;;;;;22.67;9.30;;;;;;;;;;5028402;28;20064;-75
2021/12/13 14:16:48;;;;;;;21.75;10.45;;;;;;;;;;5028430;28;20120;-77
2021/12/13 14:19:34;;;;;;;24.30;10.27;;;;;;;;;;5029397;28;20048;-76
2021/12/13 14:22:01;;;;;;;21.55;10.50;;;;;;;;;;5013412;28;20046;-78
2021/12/13 14:24:47;;;;;;;24.27;10.45;;;;;;;;;;5029932;28;20555;-78
2021/12/13 14:27:30;;;;;;;21.23;10.02;;;;;;;;;;5013949;28;20056;-76
2021/12/13 14:30:17;;;;;;;22.38;10.05;;;;;;;;;;5029884;28;20073;-78
2021/12/13 14:32:43;;;;;;;20.17;9.20;;;;;;;;;;5012977;28;20053;-78
2021/12/13 14:35:14;;;;;;;20.23;10.52;;;;;;;;;;5029553;28;20053;-77
2021/12/13 14:37:40;;;;;;;23.50;10.60;;;;;;;;;;5029551;28;20045;-77
2021/12/13 14:40:06;;;;;;;21.95;10.07;;;;;;;;;;5029771;28;20060;-77
2021/12/13 14:42:32;;;;;;;25.60;10.65;;;;;;;;;;5029292;28;20405;-78
2021/12/13 14:45:01;;;;;;;24.27;9.70;;;;;;;;;;5029129;28;20072;-77
2021/12/13 14:47:33;;;;;;;21.27;9.23;;;;;;;;;;5012824;28;20448;-78
2021/12/13 14:50:00;;;;;;;20.35;9.10;;;;;;;;;;5013737;28;20048;-78
2021/12/13 14:52:31;;;;;;;22.60;9.32;;;;;;;;;;5029251;28;20080;-77